Time;durP1;ratioP1;P1;durP2;ratioP2;P2;SDS_P1;SDS_P2;PMS_P1;PMS_P2;Temp;Humidity;BMP_temperature;BMP_pressure;BME280_temperature;BME280_humidity;BME280_pressure;Samples;Min_cycle;Max_cycle;Signal;HPM_P1;HPM_P2
2023/12/16 00:00:29;;;;;;;;;;;;;;;20.12;46.79;103008.19;2099677;28;6221;-65
2023/12/16 00:01:31;;;;;;;;;;;;;;;20.12;46.88;103005.31;2100282;28;1973;-65
2023/12/16 00:02:32;;;;;;;;;;;;;;;20.13;46.76;103009.69;2100470;28;2005;-65
2023/12/16 00:03:34;;;;;;;;;;;;;;;20.12;46.86;103014.69;2097958;28;1616;-65
2023/12/16 00:04:35;;;;;;;;;;;;;;;20.12;46.85;103013.94;2101090;28;2235;-65
2023/12/16 00:05:37;;;;;;;;;;;;;;;20.12;46.75;103013.94;2099919;28;2171;-64
2023/12/16 00:06:38;;;;;;;;;;;;;;;20.12;47.00;103013.94;2099025;28;2192;-68
2023/12/16 00:07:40;;;;;;;;;;;;;;;20.11;46.81;103004.50;2101518;28;2209;-62
2023/12/16 00:08:42;;;;;;;;;;;;;;;20.11;46.95;102995.13;2101366;28;2198;-67
2023/12/16 00:09:43;;;;;;;;;;;;;;;20.12;46.79;102996.66;2098487;28;2154;-65
2023/12/16 00:10:45;;;;;;;;;;;;;;;20.11;46.89;102986.50;2099194;28;2110;-65
2023/12/16 00:11:47;;;;;;;;;;;;;;;20.10;46.92;102997.25;2096408;28;2099;-64
2023/12/16 00:12:48;;;;;;;;;;;;;;;20.09;46.82;102992.88;2099436;28;2219;-65
2023/12/16 00:13:50;;;;;;;;;;;;;;;20.09;46.77;102993.63;2097603;28;2241;-65
2023/12/16 00:14:52;;;;;;;;;;;;;;;20.10;46.84;102994.38;2098324;28;2134;-65
2023/12/16 00:15:53;;;;;;;;;;;;;;;20.08;46.86;102992.09;2100177;28;1914;-65
2023/12/16 00:16:55;;;;;;;;;;;;;;;20.09;46.77;102993.63;2097718;28;2053;-65
2023/12/16 00:17:56;;;;;;;;;;;;;;;20.09;46.95;102987.13;2098742;28;1725;-65
2023/12/16 00:18:58;;;;;;;;;;;;;;;20.09;46.95;102992.88;2100266;28;1873;-65
2023/12/16 00:19:59;;;;;;;;;;;;;;;20.08;47.07;102997.84;2098342;28;1961;-65
2023/12/16 00:21:01;;;;;;;;;;;;;;;20.08;47.04;102997.84;2102944;28;1945;-65
2023/12/16 00:22:03;;;;;;;;;;;;;;;20.08;46.86;103000.72;2102395;28;1918;-65
2023/12/16 00:23:04;;;;;;;;;;;;;;;20.08;46.79;103003.59;2104003;28;1937;-65
2023/12/16 00:24:08;;;;;;;;;;;;;;;20.07;46.91;102996.34;2101776;28;1537;-65
2023/12/16 00:25:11;;;;;;;;;;;;;;;20.07;46.82;102998.47;2103826;28;1574;-65
2023/12/16 00:26:12;;;;;;;;;;;;;;;20.07;46.76;102992.72;2103686;28;1979;-65
2023/12/16 00:27:14;;;;;;;;;;;;;;;20.07;46.78;102995.56;2102223;28;1705;-65
2023/12/16 00:28:15;;;;;;;;;;;;;;;20.07;46.85;102990.59;2101773;28;2133;-65
2023/12/16 00:29:17;;;;;;;;;;;;;;;20.06;46.90;102994.78;2102947;28;1808;-65
2023/12/16 00:30:18;;;;;;;;;;;;;;;20.07;46.77;103002.09;2097693;28;6051;-65
2023/12/16 00:31:19;;;;;;;;;;;;;;;20.06;46.78;102991.91;2100778;28;1936;-65
2023/12/16 00:32:21;;;;;;;;;;;;;;;20.06;46.76;103000.56;2101937;28;2098;-65
2023/12/16 00:33:22;;;;;;;;;;;;;;;20.05;46.78;102993.28;2101712;28;1724;-65
2023/12/16 00:34:24;;;;;;;;;;;;;;;20.05;46.77;103001.91;2101496;28;1896;-65
2023/12/16 00:35:26;;;;;;;;;;;;;;;20.05;46.77;103004.78;2104210;28;1633;-65
2023/12/16 00:36:27;;;;;;;;;;;;;;;20.05;46.71;103001.91;2098653;28;2024;-65
2023/12/16 00:37:28;;;;;;;;;;;;;;;20.05;46.76;102998.28;2103398;28;1598;-65
2023/12/16 00:38:30;;;;;;;;;;;;;;;20.04;46.67;103000.41;2099626;28;1929;-65
2023/12/16 00:39:32;;;;;;;;;;;;;;;20.04;46.63;102996.75;2099344;28;1943;-65
2023/12/16 00:40:33;;;;;;;;;;;;;;;20.03;46.86;102990.25;2103734;28;1761;-65
2023/12/16 00:41:35;;;;;;;;;;;;;;;20.04;46.72;102994.66;2101604;28;1482;-65
2023/12/16 00:42:36;;;;;;;;;;;;;;;20.04;46.66;102994.66;2100002;28;2169;-65
2023/12/16 00:43:38;;;;;;;;;;;;;;;20.03;46.69;103001.00;2101647;28;1586;-65
2023/12/16 00:44:39;;;;;;;;;;;;;;;20.04;46.79;102997.53;2102256;28;1799;-65
2023/12/16 00:45:40;;;;;;;;;;;;;;;20.04;46.79;102986.03;2099552;28;1880;-65
2023/12/16 00:46:42;;;;;;;;;;;;;;;20.02;46.61;102991.63;2099787;28;1976;-65
2023/12/16 00:47:44;;;;;;;;;;;;;;;20.03;46.73;102992.38;2104229;28;1954;-65
2023/12/16 00:48:46;;;;;;;;;;;;;;;20.04;46.66;102991.78;2099461;28;1590;-65
2023/12/16 00:49:47;;;;;;;;;;;;;;;20.02;46.67;102988.75;2098090;28;1942;-65
2023/12/16 00:50:49;;;;;;;;;;;;;;;20.02;46.77;102976.44;2101317;28;1901;-64
2023/12/16 00:51:50;;;;;;;;;;;;;;;20.02;46.57;102985.84;2097769;28;2131;-65
2023/12/16 00:52:52;;;;;;;;;;;;;;;20.02;46.53;102976.44;2099952;28;1957;-65
2023/12/16 00:53:53;;;;;;;;;;;;;;;20.00;46.70;102979.94;2101894;28;1555;-65
2023/12/16 00:54:54;;;;;;;;;;;;;;;20.01;46.65;102981.44;2101794;28;1551;-65
2023/12/16 00:55:56;;;;;;;;;;;;;;;20.01;46.63;102990.06;2099055;28;1971;-65
2023/12/16 00:56:57;;;;;;;;;;;;;;;20.00;46.66;102988.56;2101715;28;1562;-65
2023/12/16 00:57:59;;;;;;;;;;;;;;;20.00;46.57;102994.31;2101483;28;1574;-65
2023/12/16 00:59:00;;;;;;;;;;;;;;;20.00;46.77;102991.44;2102045;28;1949;-65
2023/12/16 01:00:01;;;;;;;;;;;;;;;20.00;46.65;102997.19;2101352;28;2023;-65
2023/12/16 01:01:03;;;;;;;;;;;;;;;20.00;46.65;102994.31;2100245;28;7150;-65
2023/12/16 01:02:04;;;;;;;;;;;;;;;20.00;46.66;103000.06;2100963;28;1966;-65
2023/12/16 01:03:06;;;;;;;;;;;;;;;19.99;46.56;102998.53;2102370;28;2049;-65
2023/12/16 01:04:07;;;;;;;;;;;;;;;19.99;46.65;103000.66;2101433;28;2201;-65
2023/12/16 01:05:09;;;;;;;;;;;;;;;19.99;46.71;103004.28;2101427;28;2272;-65
2023/12/16 01:06:10;;;;;;;;;;;;;;;19.99;46.72;103006.41;2099966;28;2198;-65
2023/12/16 01:07:11;;;;;;;;;;;;;;;19.98;46.72;103005.66;2099974;28;2034;-65
2023/12/16 01:08:13;;;;;;;;;;;;;;;19.99;46.67;103009.28;2100745;28;2110;-65
2023/12/16 01:09:14;;;;;;;;;;;;;;;19.98;46.72;103011.41;2101123;28;2178;-65
2023/12/16 01:10:16;;;;;;;;;;;;;;;19.99;46.67;103009.28;2099291;28;2270;-65
2023/12/16 01:11:17;;;;;;;;;;;;;;;19.98;46.67;103017.16;2099872;28;1997;-65
2023/12/16 01:12:19;;;;;;;;;;;;;;;19.98;46.73;103016.41;2101869;28;2562;-65
2023/12/16 01:13:20;;;;;;;;;;;;;;;19.97;46.61;103014.88;2098723;28;2008;-65
2023/12/16 01:14:21;;;;;;;;;;;;;;;19.98;46.53;103016.41;2097766;28;1574;-65
2023/12/16 01:15:23;;;;;;;;;;;;;;;19.96;46.67;103022.75;2099697;28;2083;-66
2023/12/16 01:16:24;;;;;;;;;;;;;;;19.95;46.71;103018.34;2100156;28;1976;-65
2023/12/16 01:17:26;;;;;;;;;;;;;;;19.96;46.70;103007.59;2099962;28;1807;-65
2023/12/16 01:18:27;;;;;;;;;;;;;;;19.96;46.65;103013.34;2099902;28;1949;-65
2023/12/16 01:19:29;;;;;;;;;;;;;;;19.96;46.70;103019.88;2101043;28;1533;-65
2023/12/16 01:20:30;;;;;;;;;;;;;;;19.96;46.63;103025.63;2100911;28;1933;-65
2023/12/16 01:21:31;;;;;;;;;;;;;;;19.95;46.77;103024.09;2097562;28;2017;-65
2023/12/16 01:22:33;;;;;;;;;;;;;;;19.96;46.59;103025.63;2102830;28;1985;-65
2023/12/16 01:23:34;;;;;;;;;;;;;;;19.94;46.60;103011.06;2099411;28;2069;-65
2023/12/16 01:24:37;;;;;;;;;;;;;;;19.95;46.64;103017.56;2100264;28;1894;-65
2023/12/16 01:25:38;;;;;;;;;;;;;;;19.95;46.50;103017.56;2097882;28;2055;-65
2023/12/16 01:26:39;;;;;;;;;;;;;;;19.95;46.63;103015.47;2098469;28;2005;-65
2023/12/16 01:27:42;;;;;;;;;;;;;;;19.94;46.59;103016.81;2101902;28;2097;-65
2023/12/16 01:28:44;;;;;;;;;;;;;;;19.94;46.70;103010.31;2102432;28;1879;-65
2023/12/16 01:29:45;;;;;;;;;;;;;;;19.93;46.69;103006.69;2098085;28;1736;-65
2023/12/16 01:30:46;;;;;;;;;;;;;;;19.93;46.72;103009.56;2098077;28;6034;-65
2023/12/16 01:31:48;;;;;;;;;;;;;;;19.93;46.63;103003.03;2100639;28;2043;-65
2023/12/16 01:32:49;;;;;;;;;;;;;;;19.93;46.72;103009.56;2102444;28;2001;-65
2023/12/16 01:33:51;;;;;;;;;;;;;;;19.93;46.52;102991.53;2101474;28;1605;-65
2023/12/16 01:34:52;;;;;;;;;;;;;;;19.91;46.42;102994.25;2102731;28;1799;-65
2023/12/16 01:35:54;;;;;;;;;;;;;;;19.93;46.61;102997.28;2101394;28;1953;-65
2023/12/16 01:36:56;;;;;;;;;;;;;;;19.92;46.67;102996.53;2100377;28;1895;-65
2023/12/16 01:37:57;;;;;;;;;;;;;;;19.92;46.60;102999.41;2104294;28;1608;-65
2023/12/16 01:38:59;;;;;;;;;;;;;;;19.91;46.46;103006.50;2101242;28;1897;-65
2023/12/16 01:40:01;;;;;;;;;;;;;;;19.92;46.53;103007.25;2099020;28;2025;-65
2023/12/16 01:41:03;;;;;;;;;;;;;;;19.92;46.49;103002.28;2097814;28;2052;-65
2023/12/16 01:42:04;;;;;;;;;;;;;;;19.93;46.50;103008.78;2098780;28;1854;-65
2023/12/16 01:43:06;;;;;;;;;;;;;;;19.92;46.52;103007.25;2100015;28;1985;-65
2023/12/16 01:44:07;;;;;;;;;;;;;;;19.93;46.69;103003.03;2102117;28;1931;-65
2023/12/16 01:45:09;;;;;;;;;;;;;;;19.92;46.65;103007.25;2098244;28;1949;-65
2023/12/16 01:46:11;;;;;;;;;;;;;;;19.92;46.56;103007.25;2101385;28;1545;-65
2023/12/16 01:47:12;;;;;;;;;;;;;;;19.91;46.58;103009.38;2102541;28;1865;-65
2023/12/16 01:48:14;;;;;;;;;;;;;;;19.91;46.73;103009.38;2097968;28;1517;-65
2023/12/16 01:49:15;;;;;;;;;;;;;;;19.91;46.48;103011.50;2101021;28;1950;-65
2023/12/16 01:50:17;;;;;;;;;;;;;;;19.91;46.62;103020.88;2104487;28;1640;-65
2023/12/16 01:51:18;;;;;;;;;;;;;;;19.92;46.34;103018.78;2099919;28;1929;-65
2023/12/16 01:52:20;;;;;;;;;;;;;;;19.90;46.45;103016.47;2102881;28;1623;-65
2023/12/16 01:53:21;;;;;;;;;;;;;;;19.90;46.55;103007.84;2102568;28;2009;-65
2023/12/16 01:54:23;;;;;;;;;;;;;;;19.90;46.54;103016.47;2103312;28;2130;-65
2023/12/16 01:55:24;;;;;;;;;;;;;;;19.90;46.51;103012.84;2098346;28;2054;-65
2023/12/16 01:56:28;;;;;;;;;;;;;;;19.89;46.43;103014.97;2101492;28;1716;-65
2023/12/16 01:57:29;;;;;;;;;;;;;;;19.90;46.55;103015.72;2099766;28;2103;-65
2023/12/16 01:58:31;;;;;;;;;;;;;;;19.90;46.58;103022.22;2103034;28;1638;-65
2023/12/16 01:59:32;;;;;;;;;;;;;;;19.90;46.60;103016.47;2101577;28;1880;-65
2023/12/16 02:00:34;;;;;;;;;;;;;;;19.89;46.53;103020.72;2102977;28;6081;-65
2023/12/16 02:01:35;;;;;;;;;;;;;;;19.89;46.48;103023.59;2101600;28;1994;-65
2023/12/16 02:02:37;;;;;;;;;;;;;;;19.89;46.58;103029.34;2098758;28;1989;-65
2023/12/16 02:03:38;;;;;;;;;;;;;;;19.88;46.50;103022.84;2103525;28;1634;-65
2023/12/16 02:04:40;;;;;;;;;;;;;;;19.89;46.43;103026.47;2099664;28;1826;-65
2023/12/16 02:05:41;;;;;;;;;;;;;;;19.88;46.55;103036.44;2102814;28;1926;-65
2023/12/16 02:06:43;;;;;;;;;;;;;;;19.88;46.52;103028.59;2100922;28;1968;-65
2023/12/16 02:07:44;;;;;;;;;;;;;;;19.88;46.43;103037.22;2100391;28;1931;-65
2023/12/16 02:08:46;;;;;;;;;;;;;;;19.88;46.56;103036.44;2098718;28;1928;-64
2023/12/16 02:09:47;;;;;;;;;;;;;;;19.88;46.46;103033.56;2099704;28;2079;-65
2023/12/16 02:10:49;;;;;;;;;;;;;;;19.87;46.55;103034.94;2100022;28;1854;-64
2023/12/16 02:11:52;;;;;;;;;;;;;;;19.87;46.48;103034.94;2098521;28;1790;-65
2023/12/16 02:12:54;;;;;;;;;;;;;;;19.87;46.53;103034.94;2098158;28;2027;-65
2023/12/16 02:13:55;;;;;;;;;;;;;;;19.88;46.43;103036.44;2100918;28;2319;-65
2023/12/16 02:14:56;;;;;;;;;;;;;;;19.86;46.53;103042.78;2099015;28;1859;-65
2023/12/16 02:15:58;;;;;;;;;;;;;;;19.86;46.55;103048.56;2100094;28;2012;-65
2023/12/16 02:16:59;;;;;;;;;;;;;;;19.86;46.49;103044.91;2103234;28;1810;-65
2023/12/16 02:18:00;;;;;;;;;;;;;;;19.86;46.46;103047.78;2102428;28;1917;-65
2023/12/16 02:19:03;;;;;;;;;;;;;;;19.86;46.43;103050.66;2102469;28;1631;-65
2023/12/16 02:20:05;;;;;;;;;;;;;;;19.86;46.39;103044.91;2098836;28;1921;-65
2023/12/16 02:21:06;;;;;;;;;;;;;;;19.86;46.41;103044.91;2103608;28;1450;-64
2023/12/16 02:22:08;;;;;;;;;;;;;;;19.87;46.42;103049.31;2101309;28;2133;-65
2023/12/16 02:23:27;;;;;;;;;;;;;;;19.86;46.34;103044.91;2099624;28;2059;-65
2023/12/16 02:24:29;;;;;;;;;;;;;;;19.85;46.49;103038.38;2105337;28;1689;-65
2023/12/16 02:25:30;;;;;;;;;;;;;;;19.85;46.38;103044.13;2100071;28;2154;-65
2023/12/16 02:26:32;;;;;;;;;;;;;;;19.84;46.42;103036.88;2101442;28;1561;-65
2023/12/16 02:27:33;;;;;;;;;;;;;;;19.84;46.34;103036.13;2098738;28;1588;-65
2023/12/16 02:28:35;;;;;;;;;;;;;;;19.85;46.28;103031.88;2098804;28;1599;-65
2023/12/16 02:29:36;;;;;;;;;;;;;;;19.84;46.45;103036.13;2097324;28;2151;-65
2023/12/16 02:30:37;;;;;;;;;;;;;;;19.85;46.41;103034.75;2098193;28;6258;-65
2023/12/16 02:31:39;;;;;;;;;;;;;;;19.84;46.38;103025.38;2098841;28;1859;-65
2023/12/16 02:32:43;;;;;;;;;;;;;;;19.85;46.51;103037.63;2096989;28;1955;-65
2023/12/16 02:33:45;;;;;;;;;;;;;;;19.83;46.42;103029.59;2097991;28;1609;-65
2023/12/16 02:34:48;;;;;;;;;;;;;;;19.84;46.53;103024.63;2098058;28;1991;-65
2023/12/16 02:35:49;;;;;;;;;;;;;;;19.83;46.50;103032.47;2099721;28;2281;-65
2023/12/16 02:36:51;;;;;;;;;;;;;;;19.83;46.48;103028.84;2103025;28;1995;-65
2023/12/16 02:37:52;;;;;;;;;;;;;;;19.83;46.41;103032.47;2100090;28;1519;-65
2023/12/16 02:38:53;;;;;;;;;;;;;;;19.83;46.46;103034.59;2100797;28;2004;-65
2023/12/16 02:39:55;;;;;;;;;;;;;;;19.83;46.42;103029.59;2098376;28;1928;-65
2023/12/16 02:40:56;;;;;;;;;;;;;;;19.84;46.44;103033.25;2102049;28;1863;-65
2023/12/16 02:41:58;;;;;;;;;;;;;;;19.83;46.35;103028.84;2101206;28;1933;-65
2023/12/16 02:42:59;;;;;;;;;;;;;;;19.82;46.43;103030.94;2096864;28;2296;-65
2023/12/16 02:44:00;;;;;;;;;;;;;;;19.81;46.55;103043.03;2097913;28;2277;-65
2023/12/16 02:45:02;;;;;;;;;;;;;;;19.82;46.29;103039.59;2097495;28;2631;-65
2023/12/16 02:46:03;;;;;;;;;;;;;;;19.82;46.42;103038.81;2100571;28;2323;-65
2023/12/16 02:47:07;;;;;;;;;;;;;;;19.82;46.36;103044.56;2098599;28;2341;-65
2023/12/16 02:48:08;;;;;;;;;;;;;;;19.82;46.34;103050.31;2099637;28;2099;-65
2023/12/16 02:49:10;;;;;;;;;;;;;;;19.82;46.40;103044.56;2100575;28;2002;-65
2023/12/16 02:50:11;;;;;;;;;;;;;;;19.82;46.36;103044.56;2100418;28;1998;-65
2023/12/16 02:51:16;;;;;;;;;;;;;;;19.82;46.44;103044.56;2098000;28;2193;-65
2023/12/16 02:52:17;;;;;;;;;;;;;;;19.82;46.36;103038.81;2096503;28;1952;-65
2023/12/16 02:53:19;;;;;;;;;;;;;;;19.82;46.29;103038.81;2101159;28;2205;-65
2023/12/16 02:54:20;;;;;;;;;;;;;;;19.81;46.26;103040.94;2102859;28;1642;-65
2023/12/16 02:55:22;;;;;;;;;;;;;;;19.81;46.20;103037.28;2100606;28;1792;-65
2023/12/16 02:56:23;;;;;;;;;;;;;;;19.80;46.38;103035.78;2098332;28;1928;-65
2023/12/16 02:57:25;;;;;;;;;;;;;;;19.80;46.42;103041.53;2101212;28;1983;-65
2023/12/16 02:58:26;;;;;;;;;;;;;;;19.80;46.33;103032.91;2098774;28;1956;-65
2023/12/16 02:59:28;;;;;;;;;;;;;;;19.80;46.38;103032.91;2097457;28;2209;-65
2023/12/16 03:00:29;;;;;;;;;;;;;;;19.80;46.39;103033.66;2101004;28;6083;-65
2023/12/16 03:01:31;;;;;;;;;;;;;;;19.80;46.43;103025.03;2102839;28;1598;-64
2023/12/16 03:02:32;;;;;;;;;;;;;;;19.80;46.40;103021.41;2101241;28;1918;-65
2023/12/16 03:03:35;;;;;;;;;;;;;;;19.79;46.13;103026.41;2098825;28;2264;-65
2023/12/16 03:04:37;;;;;;;;;;;;;;;19.80;46.33;103030.03;2102647;28;2392;-65
2023/12/16 03:05:38;;;;;;;;;;;;;;;19.79;46.25;103022.75;2101042;28;1847;-65
2023/12/16 03:06:42;;;;;;;;;;;;;;;19.79;46.43;103028.50;2098347;28;1631;-64
2023/12/16 03:07:44;;;;;;;;;;;;;;;19.79;46.31;103028.50;2096421;28;2195;-65
2023/12/16 03:08:45;;;;;;;;;;;;;;;19.79;46.35;103035.03;2099319;28;1774;-65
2023/12/16 03:09:47;;;;;;;;;;;;;;;19.79;46.23;103034.25;2098265;28;1880;-65
2023/12/16 03:10:48;;;;;;;;;;;;;;;19.78;46.21;103027.72;2101816;28;1542;-65
2023/12/16 03:11:49;;;;;;;;;;;;;;;19.79;46.26;103034.25;2100433;28;1919;-65
2023/12/16 03:12:51;;;;;;;;;;;;;;;19.79;46.18;103034.25;2099231;28;2001;-65
2023/12/16 03:13:52;;;;;;;;;;;;;;;19.78;46.23;103027.72;2100023;28;2015;-65
2023/12/16 03:14:54;;;;;;;;;;;;;;;19.78;46.51;103039.22;2099847;28;1891;-65
2023/12/16 03:15:55;;;;;;;;;;;;;;;19.78;46.18;103038.47;2099283;28;2139;-65
2023/12/16 03:16:57;;;;;;;;;;;;;;;19.78;46.31;103041.34;2098125;28;2078;-65
2023/12/16 03:17:58;;;;;;;;;;;;;;;19.78;46.20;103038.47;2098552;28;2053;-65
2023/12/16 03:19:00;;;;;;;;;;;;;;;19.78;46.20;103038.47;2096989;28;2032;-65
2023/12/16 03:20:03;;;;;;;;;;;;;;;19.77;46.22;103042.69;2096973;28;2083;-65
2023/12/16 03:21:06;;;;;;;;;;;;;;;19.78;46.13;103047.09;2100177;28;1978;-65
2023/12/16 03:22:08;;;;;;;;;;;;;;;19.78;46.22;103044.22;2097786;28;2219;-65
2023/12/16 03:23:09;;;;;;;;;;;;;;;19.77;46.35;103054.19;2100962;28;1956;-65
2023/12/16 03:24:12;;;;;;;;;;;;;;;19.78;46.24;103053.59;2100658;28;2075;-64
2023/12/16 03:25:16;;;;;;;;;;;;;;;19.77;46.20;103054.97;2101820;28;1961;-65
2023/12/16 03:26:19;;;;;;;;;;;;;;;19.78;46.19;103055.72;2099965;28;1964;-65
2023/12/16 03:27:20;;;;;;;;;;;;;;;19.77;46.20;103054.97;2098568;28;1858;-65
2023/12/16 03:28:22;;;;;;;;;;;;;;;19.77;46.22;103054.97;2098559;28;2080;-65
2023/12/16 03:29:23;;;;;;;;;;;;;;;19.77;46.24;103048.44;2099327;28;1689;-65
2023/12/16 03:30:24;;;;;;;;;;;;;;;19.76;46.14;103047.69;2099909;28;6088;-65
2023/12/16 03:31:26;;;;;;;;;;;;;;;19.77;46.12;103057.06;2098829;28;2038;-65
2023/12/16 03:32:27;;;;;;;;;;;;;;;19.77;46.20;103065.69;2099627;28;1855;-65
2023/12/16 03:33:29;;;;;;;;;;;;;;;19.77;46.22;103059.94;2099417;28;1989;-65
2023/12/16 03:34:30;;;;;;;;;;;;;;;19.77;46.23;103065.69;2098912;28;1842;-65
2023/12/16 03:35:32;;;;;;;;;;;;;;;19.76;46.30;103069.94;2098707;28;1804;-65
2023/12/16 03:36:33;;;;;;;;;;;;;;;19.75;46.20;103074.94;2099249;28;1891;-65
2023/12/16 03:37:34;;;;;;;;;;;;;;;19.75;46.28;103077.81;2097983;28;1843;-65
2023/12/16 03:38:36;;;;;;;;;;;;;;;19.75;46.26;103071.31;2099263;28;2261;-65
2023/12/16 03:39:39;;;;;;;;;;;;;;;19.75;46.26;103074.19;2100457;28;1584;-65
2023/12/16 03:40:40;;;;;;;;;;;;;;;19.74;46.23;103069.75;2100862;28;1949;-65
2023/12/16 03:41:42;;;;;;;;;;;;;;;19.74;46.17;103061.88;2098938;28;1969;-65
2023/12/16 03:42:43;;;;;;;;;;;;;;;19.74;46.22;103061.13;2098345;28;1697;-65
2023/12/16 03:43:45;;;;;;;;;;;;;;;19.73;46.29;103069.00;2100647;28;1993;-65
2023/12/16 03:44:46;;;;;;;;;;;;;;;19.73;46.28;103071.13;2099050;28;1525;-65
2023/12/16 03:45:48;;;;;;;;;;;;;;;19.74;46.29;103078.38;2102347;28;2008;-65
2023/12/16 03:46:49;;;;;;;;;;;;;;;19.74;46.23;103078.38;2102777;28;1756;-65
2023/12/16 03:47:51;;;;;;;;;;;;;;;19.73;46.32;103088.38;2097192;28;1890;-65
2023/12/16 03:48:52;;;;;;;;;;;;;;;19.74;46.34;103084.88;2099154;28;1940;-65
2023/12/16 03:49:54;;;;;;;;;;;;;;;19.74;46.31;103078.38;2100078;28;1598;-65
2023/12/16 03:50:56;;;;;;;;;;;;;;;19.77;46.05;103074.31;2101346;28;2082;-65
2023/12/16 03:51:57;;;;;;;;;;;;;;;19.78;46.13;103075.84;2098855;28;2159;-65
2023/12/16 03:52:58;;;;;;;;;;;;;;;19.78;46.15;103073.72;2100450;28;1654;-65
2023/12/16 03:54:00;;;;;;;;;;;;;;;19.80;46.23;103076.03;2097361;28;2372;-65
2023/12/16 03:55:01;;;;;;;;;;;;;;;19.79;46.23;103069.53;2097845;28;2123;-65
2023/12/16 03:56:03;;;;;;;;;;;;;;;19.80;46.16;103073.91;2101175;28;2144;-65
2023/12/16 03:57:05;;;;;;;;;;;;;;;19.80;46.14;103067.41;2098909;28;2193;-65
2023/12/16 03:58:06;;;;;;;;;;;;;;;19.82;46.12;103070.44;2101744;28;2011;-65
2023/12/16 03:59:08;;;;;;;;;;;;;;;19.83;46.05;103066.22;2102749;28;1975;-65
2023/12/16 04:00:10;;;;;;;;;;;;;;;19.82;46.21;103062.59;2102205;28;6036;-65
2023/12/16 04:01:13;;;;;;;;;;;;;;;19.83;46.18;103060.47;2098849;28;2194;-65
2023/12/16 04:02:15;;;;;;;;;;;;;;;19.84;46.15;103065.63;2099215;28;2027;-65
2023/12/16 04:03:17;;;;;;;;;;;;;;;19.86;46.00;103065.03;2104196;28;1890;-65
2023/12/16 04:04:18;;;;;;;;;;;;;;;19.86;46.17;103076.56;2101607;28;1975;-65
2023/12/16 04:05:20;;;;;;;;;;;;;;;19.87;45.84;103069.44;2105119;28;1993;-65
2023/12/16 04:06:21;;;;;;;;;;;;;;;19.88;46.08;103070.94;2099418;28;1917;-65
2023/12/16 04:07:23;;;;;;;;;;;;;;;19.88;46.14;103068.06;2099947;28;1899;-65
2023/12/16 04:08:24;;;;;;;;;;;;;;;19.88;46.10;103062.31;2102111;28;1440;-65
2023/12/16 04:09:26;;;;;;;;;;;;;;;19.88;46.20;103065.97;2099910;28;1983;-65
2023/12/16 04:10:27;;;;;;;;;;;;;;;19.77;46.45;103065.69;2102102;28;2306;-65
2023/12/16 04:11:29;;;;;;;;;;;;;;;19.80;46.42;103065.28;2102571;28;1507;-65
2023/12/16 04:12:30;;;;;;;;;;;;;;;19.84;46.42;103070.63;2100811;28;1565;-65
2023/12/16 04:13:34;;;;;;;;;;;;;;;19.87;46.37;103069.44;2101347;28;1775;-64
2023/12/16 04:14:38;;;;;;;;;;;;;;;19.87;46.32;103070.19;2100316;28;2048;-65
2023/12/16 04:15:40;;;;;;;;;;;;;;;19.88;46.13;103062.31;2099868;28;1506;-65
2023/12/16 04:16:41;;;;;;;;;;;;;;;19.89;46.27;103066.72;2102479;28;1977;-65
2023/12/16 04:17:42;;;;;;;;;;;;;;;19.88;46.42;103068.06;2098389;28;1922;-65
2023/12/16 04:18:44;;;;;;;;;;;;;;;19.88;46.32;103065.19;2102769;28;2124;-65
2023/12/16 04:19:52;;;;;;;;;;;;;;;19.88;46.38;103068.06;2099205;28;1996;-65
2023/12/16 04:20:55;;;;;;;;;;;;;;;19.88;46.38;103076.69;2099006;28;1949;-65
2023/12/16 04:21:57;;;;;;;;;;;;;;;19.90;46.38;103074.00;2099167;28;1521;-65
2023/12/16 04:22:58;;;;;;;;;;;;;;;19.89;46.17;103066.72;2097783;28;2240;-65
2023/12/16 04:24:00;;;;;;;;;;;;;;;19.90;46.29;103074.00;2099023;28;2039;-65
2023/12/16 04:25:09;;;;;;;;;;;;;;;19.91;46.29;103075.53;2099414;28;1989;-65
2023/12/16 04:26:10;;;;;;;;;;;;;;;19.91;46.39;103069.78;2100328;28;2122;-65
2023/12/16 04:27:12;;;;;;;;;;;;;;;19.92;46.41;103079.16;2098742;28;1710;-65
2023/12/16 04:28:13;;;;;;;;;;;;;;;19.91;46.33;103074.78;2099602;28;1974;-66
2023/12/16 04:29:15;;;;;;;;;;;;;;;19.92;46.50;103082.78;2104428;28;1607;-65
2023/12/16 04:30:17;;;;;;;;;;;;;;;19.87;46.38;103070.19;2099721;28;6068;-65
2023/12/16 04:31:19;;;;;;;;;;;;;;;19.89;46.40;103072.47;2104846;28;2096;-65
2023/12/16 04:32:21;;;;;;;;;;;;;;;19.93;46.36;103072.03;2098672;28;1924;-65
2023/12/16 04:33:23;;;;;;;;;;;;;;;19.95;46.28;103063.59;2099841;28;2111;-65
2023/12/16 04:34:24;;;;;;;;;;;;;;;19.96;46.56;103068.75;2105271;28;1603;-65
2023/12/16 04:35:26;;;;;;;;;;;;;;;19.93;46.45;103072.03;2099916;28;1803;-65
2023/12/16 04:36:27;;;;;;;;;;;;;;;19.96;46.31;103071.63;2099956;28;1577;-65
2023/12/16 04:37:29;;;;;;;;;;;;;;;19.97;46.35;103072.38;2102434;28;1983;-65
2023/12/16 04:38:30;;;;;;;;;;;;;;;19.95;46.43;103070.13;2099985;28;1953;-65
2023/12/16 04:39:31;;;;;;;;;;;;;;;19.96;46.41;103070.88;2102681;28;1589;-65
2023/12/16 04:40:33;;;;;;;;;;;;;;;19.95;46.51;103064.38;2100073;28;1679;-65
2023/12/16 04:41:34;;;;;;;;;;;;;;;19.96;46.49;103068.00;2097815;28;1973;-65
2023/12/16 04:42:36;;;;;;;;;;;;;;;19.97;46.48;103069.50;2103129;28;1831;-65
2023/12/16 04:43:37;;;;;;;;;;;;;;;19.97;46.35;103075.25;2099200;28;2245;-64
2023/12/16 04:44:39;;;;;;;;;;;;;;;19.96;46.57;103071.63;2102040;28;1902;-65
2023/12/16 04:45:40;;;;;;;;;;;;;;;19.97;46.51;103066.63;2103583;28;1945;-65
2023/12/16 04:46:42;;;;;;;;;;;;;;;19.95;46.45;103064.38;2099691;28;1578;-65
2023/12/16 04:47:43;;;;;;;;;;;;;;;19.96;46.41;103053.63;2100354;28;2054;-65
2023/12/16 04:48:45;;;;;;;;;;;;;;;19.94;46.59;103059.97;2102458;28;1712;-65
2023/12/16 04:49:46;;;;;;;;;;;;;;;19.95;46.46;103070.13;2101794;28;2044;-65
2023/12/16 04:50:48;;;;;;;;;;;;;;;19.96;46.47;103065.13;2101978;28;2053;-65
2023/12/16 04:51:49;;;;;;;;;;;;;;;19.95;46.56;103058.63;2098875;28;1585;-65
2023/12/16 04:52:50;;;;;;;;;;;;;;;19.95;46.55;103060.72;2099665;28;2060;-65
2023/12/16 04:53:53;;;;;;;;;;;;;;;19.95;46.58;103064.38;2098332;28;2086;-65
2023/12/16 04:54:54;;;;;;;;;;;;;;;19.96;46.45;103060.13;2100724;28;2261;-65
2023/12/16 04:55:55;;;;;;;;;;;;;;;19.97;46.39;103060.88;2100161;28;1971;-65
2023/12/16 04:56:57;;;;;;;;;;;;;;;19.98;46.58;103068.16;2100091;28;1998;-65
2023/12/16 04:57:58;;;;;;;;;;;;;;;19.98;46.44;103068.94;2100387;28;1978;-65
2023/12/16 04:58:59;;;;;;;;;;;;;;;19.99;46.47;103069.69;2099511;28;2371;-65
2023/12/16 05:00:01;;;;;;;;;;;;;;;19.98;46.48;103071.81;2099851;28;2306;-65
2023/12/16 05:01:03;;;;;;;;;;;;;;;19.99;46.55;103070.44;2097964;28;6122;-65
2023/12/16 05:02:04;;;;;;;;;;;;;;;19.99;46.57;103078.31;2103123;28;1598;-65
2023/12/16 05:03:06;;;;;;;;;;;;;;;20.00;46.61;103085.59;2100147;28;1558;-65
2023/12/16 05:04:07;;;;;;;;;;;;;;;20.01;46.43;103073.47;2099756;28;1957;-65
2023/12/16 05:05:09;;;;;;;;;;;;;;;20.02;46.49;103075.03;2100589;28;2146;-65
2023/12/16 05:06:10;;;;;;;;;;;;;;;20.01;46.46;103070.59;2098590;28;2174;-65
2023/12/16 05:07:12;;;;;;;;;;;;;;;20.01;46.47;103085.00;2100609;28;2106;-65
2023/12/16 05:08:14;;;;;;;;;;;;;;;20.01;46.61;103073.47;2102963;28;2528;-65
2023/12/16 05:09:16;;;;;;;;;;;;;;;20.02;46.60;103080.00;2101158;28;2127;-65
2023/12/16 05:10:17;;;;;;;;;;;;;;;20.03;46.63;103075.78;2099588;28;2051;-65
2023/12/16 05:11:19;;;;;;;;;;;;;;;20.01;46.52;103079.25;2098995;28;2314;-65
2023/12/16 05:12:20;;;;;;;;;;;;;;;20.02;46.50;103080.00;2098917;28;2115;-65
2023/12/16 05:13:36;;;;;;;;;;;;;;;20.02;46.64;103074.25;2097745;28;2216;-65
2023/12/16 05:14:40;;;;;;;;;;;;;;;20.02;46.46;103080.00;2100097;28;2428;-65
2023/12/16 05:15:42;;;;;;;;;;;;;;;20.02;46.46;103065.63;2101301;28;2253;-65
2023/12/16 05:16:43;;;;;;;;;;;;;;;20.02;46.58;103068.47;2100921;28;2009;-65
2023/12/16 05:17:44;;;;;;;;;;;;;;;20.01;46.44;103064.84;2100057;28;1916;-65
2023/12/16 05:18:46;;;;;;;;;;;;;;;20.01;46.61;103066.97;2103675;28;1551;-65
2023/12/16 05:19:47;;;;;;;;;;;;;;;19.99;46.45;103061.81;2101357;28;2154;-65
2023/12/16 05:20:49;;;;;;;;;;;;;;;20.01;46.58;103073.47;2098197;28;1913;-65
2023/12/16 05:21:51;;;;;;;;;;;;;;;19.99;46.67;103067.56;2104491;28;1614;-65